sim
Sign-in with your pilot id or email,
or register
Callsign
Passwort

Schedule Details

Flight Number: RYR16 (5)
Departure: Athens Eleftherios Venizelos (LGAV) at 09:25
Arrival: Thessaloniki International Airport (LGTS) at 10:25
Route: Ryanair Passenger Schedule. Enter filed route here before submitting Pirep.

Weather Information
Getting current METAR information for LGAV 192220Z 02007KT 330V050 9999 FEW030 SCT070 09/05 Q1024 NOSIG
Getting current METAR information for LGTS 192220Z 14004KT 9999 FEW020 13/09 Q1023 NOSIG

Schedule Frequency

Route Map